Accueil
METAR-TAF:

METAR-TAF

Aéroports :

Aéroport d'Ajaccio-Napoléon-Bonaparte

Ajaccio, France

latitude: 41-55N, longitude: 008-48E, altitude: 6 m

Observation

Le bulletin a été fait il y a 29 minutes, à 12:00 UTC
Vent 8 kt de sud-ouest
Température 28°C
Humidité 70%
Pression 1015 hPa
Visibilité 10 km ou plus
pas de nuages en-dessous de 1500 mètres et pas de cumulonimbus.

METAR: LFKJ 181200Z AUTO 23008KT CAVOK 28/22 Q1015

Heure: 14:29 (12:29 UTC)

Prévision

Le bulletin a été fait il y a 4 heures et 29 minutes, à 08:00 UTC
Prévision valable du 18 à 09 UTC au 19 à 09 UTC
Vent 10 kt de sud-ouest
Visibilité 10 km ou plus
Quelques nuages à une hauteur de 2000 ft
Evoluant progressivement
du 18 à 18 UTC au 18 à 20 UTC
Vent 3 kt de nord-est

TAF: LFKJ 180800Z 1809/1909 22010KT 9999 FEW020 BECMG 1818/1820 04003KT

Observations et prévisions météorologiques de plus de 4000 aéroports (messages METAR et TAF).

Les stations disponibles sont représentées par des disques jaunes et rouges sur la carte.

Passer la souris dessus pour voir le nom de la station.

Cliquer dessus pour voir les observations et prévisions météorologiques.

Pour changer de carte: cliquez sur les boutons verts avec une croix noire pour zoomer, sur le bouton vert avec un tiret pour effectuer un zoom arrière, ou sur les flèches vertes pour les cartes adjacentes.


METAR-TAF: